createdAt,value
2022-12-02T00:02:22.953Z,14.52
2022-12-02T00:04:58.546Z,17.45
2022-12-02T00:07:26.565Z,17.17
2022-12-02T00:09:54.380Z,17.23
2022-12-02T00:12:25.219Z,17.42
2022-12-02T00:14:57.245Z,19.88
2022-12-02T00:17:25.242Z,19.60
2022-12-02T00:19:53.422Z,18.52
2022-12-02T00:22:22.768Z,18.38
2022-12-02T00:24:50.953Z,13.82
2022-12-02T00:27:18.819Z,15.98
2022-12-02T00:29:46.571Z,12.50
2022-12-02T00:32:14.396Z,14.02
2022-12-02T00:34:42.110Z,14.25
2022-12-02T00:37:09.819Z,14.55
2022-12-02T00:39:38.976Z,13.63
2022-12-02T00:42:06.770Z,12.10
2022-12-02T00:44:52.039Z,10.23
2022-12-02T00:47:19.995Z,10.52
2022-12-02T00:49:47.772Z,12.05
2022-12-02T00:52:16.042Z,10.23
2022-12-02T00:54:45.103Z,12.90
2022-12-02T00:57:12.827Z,12.90
2022-12-02T00:59:40.569Z,11.48
2022-12-02T01:02:08.379Z,10.90
2022-12-02T01:04:36.192Z,9.05
2022-12-02T01:07:03.865Z,9.52
2022-12-02T01:09:31.808Z,9.43
2022-12-02T01:12:00.919Z,7.55
2022-12-02T01:14:28.969Z,11.48
2022-12-02T01:16:56.838Z,9.80
2022-12-02T01:19:24.776Z,10.20
2022-12-02T01:21:52.533Z,9.80
2022-12-02T01:24:20.341Z,11.60
2022-12-02T01:26:48.035Z,8.38
2022-12-02T01:29:17.154Z,8.60
2022-12-02T01:31:45.009Z,9.52
2022-12-02T01:34:12.852Z,11.30
2022-12-02T01:36:40.514Z,10.60
2022-12-02T01:39:08.280Z,12.45
2022-12-02T01:41:35.968Z,13.48
2022-12-02T01:44:03.728Z,11.27
2022-12-02T01:46:32.832Z,13.82
2022-12-02T01:49:00.668Z,11.55
2022-12-02T01:51:28.499Z,12.57
2022-12-02T01:53:56.419Z,10.50
2022-12-02T01:56:24.293Z,12.07
2022-12-02T01:58:52.099Z,11.73
2022-12-02T02:01:27.857Z,13.55
2022-12-02T02:03:57.166Z,10.27
2022-12-02T02:06:26.596Z,9.93
2022-12-02T02:08:55.023Z,9.75
2022-12-02T02:11:23.748Z,10.13
2022-12-02T02:13:51.613Z,10.70
2022-12-02T02:16:19.448Z,9.65
2022-12-02T02:18:47.287Z,10.13
2022-12-02T02:21:21.568Z,9.75
2022-12-02T02:23:50.835Z,9.68
2022-12-02T02:26:18.911Z,9.60
2022-12-02T02:28:46.863Z,11.13
2022-12-02T02:31:14.692Z,10.35
2022-12-02T02:33:42.840Z,10.90
2022-12-02T02:36:11.227Z,12.02
2022-12-02T02:38:39.852Z,12.70
2022-12-02T02:41:10.261Z,11.30
2022-12-02T02:43:39.356Z,10.80
2022-12-02T02:46:07.991Z,9.40
2022-12-02T02:48:36.833Z,12.60
2022-12-02T02:51:05.055Z,10.60
2022-12-02T02:53:32.989Z,11.57
2022-12-02T02:56:01.019Z,10.85
2022-12-02T02:58:30.201Z,10.38
2022-12-02T03:01:01.047Z,10.43
2022-12-02T03:03:32.672Z,9.90
2022-12-02T03:06:02.390Z,9.02
2022-12-02T03:08:32.366Z,11.07
2022-12-02T03:11:01.688Z,10.85
2022-12-02T03:13:32.333Z,11.63
2022-12-02T03:16:00.772Z,11.05
2022-12-02T03:18:28.772Z,9.60
2022-12-02T03:20:56.680Z,9.13
2022-12-02T03:23:24.707Z,8.57
2022-12-02T03:25:52.754Z,9.25
2022-12-02T03:28:20.772Z,7.97
2022-12-02T03:30:50.154Z,8.07
2022-12-02T03:33:18.099Z,9.75
2022-12-02T03:35:46.300Z,9.32
2022-12-02T03:38:14.189Z,8.68
2022-12-02T03:40:42.444Z,10.00
2022-12-02T03:43:10.340Z,8.60
2022-12-02T03:45:38.067Z,8.75
2022-12-02T03:48:07.664Z,9.32
2022-12-02T03:50:35.424Z,10.38
2022-12-02T03:53:03.456Z,10.15
2022-12-02T03:55:31.237Z,11.40
2022-12-02T03:58:05.132Z,9.48
2022-12-02T04:00:32.966Z,8.38
2022-12-02T04:03:00.873Z,10.43
2022-12-02T04:05:30.179Z,9.68
2022-12-02T04:07:58.066Z,10.15
2022-12-02T04:10:26.230Z,9.70
2022-12-02T04:12:54.017Z,9.27
2022-12-02T04:15:21.686Z,8.52
2022-12-02T04:17:49.378Z,11.43
2022-12-02T04:20:17.288Z,8.90
2022-12-02T04:22:46.305Z,9.05
2022-12-02T04:25:14.005Z,9.55
2022-12-02T04:27:41.752Z,8.52
2022-12-02T04:30:10.369Z,9.52
2022-12-02T04:32:38.114Z,9.43
2022-12-02T04:35:06.751Z,10.38
2022-12-02T04:37:34.550Z,10.50
2022-12-02T04:40:03.740Z,9.48
2022-12-02T04:42:31.600Z,8.35
2022-12-02T04:44:59.499Z,7.55
2022-12-02T04:47:27.176Z,10.13
2022-12-02T04:49:54.990Z,9.85
2022-12-02T04:52:22.745Z,10.25
2022-12-02T04:54:50.807Z,8.93
2022-12-02T04:57:20.305Z,6.97
2022-12-02T04:59:48.249Z,7.55
2022-12-02T05:02:16.015Z,9.75
2022-12-02T05:04:43.821Z,7.80
2022-12-02T05:07:11.583Z,8.85
2022-12-02T05:09:39.381Z,9.60
2022-12-02T05:12:07.404Z,10.02
2022-12-02T05:14:36.911Z,11.27
2022-12-02T05:17:04.654Z,11.60
2022-12-02T05:19:32.483Z,10.10
2022-12-02T05:22:00.274Z,8.82
2022-12-02T05:24:28.140Z,10.65
2022-12-02T05:26:55.884Z,9.48
2022-12-02T05:29:23.780Z,9.57
2022-12-02T05:31:52.961Z,8.02
2022-12-02T05:34:20.829Z,9.13
2022-12-02T05:36:48.833Z,10.27
2022-12-02T05:39:16.665Z,10.63
2022-12-02T05:41:45.668Z,9.15
2022-12-02T05:44:21.850Z,7.53
2022-12-02T05:46:50.243Z,8.35
2022-12-02T05:49:21.481Z,8.85
2022-12-02T05:51:57.102Z,7.75
2022-12-02T05:54:25.816Z,7.78
2022-12-02T05:56:53.712Z,9.48
2022-12-02T05:59:23.285Z,8.48
2022-12-02T06:01:52.898Z,9.18
2022-12-02T06:04:25.649Z,8.18
2022-12-02T06:06:54.680Z,8.27
2022-12-02T06:09:26.696Z,8.50
2022-12-02T06:11:54.531Z,8.05
2022-12-02T06:14:24.153Z,7.03
2022-12-02T06:16:54.874Z,9.50
2022-12-02T06:19:37.440Z,9.48
2022-12-02T06:22:07.444Z,11.02
2022-12-02T06:24:36.079Z,8.70
2022-12-02T06:27:04.036Z,7.55
2022-12-02T06:29:33.352Z,9.90
2022-12-02T06:32:01.798Z,8.98
2022-12-02T06:34:37.649Z,10.43
2022-12-02T06:37:14.586Z,9.88
2022-12-02T06:40:04.705Z,10.13
2022-12-02T06:42:33.800Z,9.43
2022-12-02T06:45:08.471Z,11.80
2022-12-02T06:48:04.828Z,9.38
2022-12-02T06:50:42.573Z,10.55
2022-12-02T06:53:33.655Z,10.40
2022-12-02T06:56:05.895Z,9.93
2022-12-02T06:58:36.940Z,9.80
2022-12-02T07:01:26.983Z,9.38
2022-12-02T07:04:03.907Z,10.50
2022-12-02T07:06:34.336Z,10.93
2022-12-02T07:09:04.436Z,10.07
2022-12-02T07:11:53.251Z,9.75
2022-12-02T07:14:31.262Z,8.55
2022-12-02T07:17:03.010Z,11.05
2022-12-02T07:19:40.018Z,10.82
2022-12-02T07:22:15.736Z,13.50
2022-12-02T07:24:47.272Z,16.30
2022-12-02T07:27:22.288Z,15.80
2022-12-02T07:29:51.023Z,14.70
2022-12-02T07:32:18.887Z,13.25
2022-12-02T07:34:46.671Z,12.35
2022-12-02T07:37:16.038Z,26.15
2022-12-02T07:39:44.044Z,16.52
2022-12-02T07:42:13.221Z,15.18
2022-12-02T07:44:41.143Z,15.98
2022-12-02T07:47:09.051Z,12.63
2022-12-02T07:49:36.887Z,13.20
2022-12-02T07:52:05.032Z,12.65
2022-12-02T07:54:34.451Z,12.63
2022-12-02T07:57:02.165Z,13.57
2022-12-02T07:59:29.924Z,11.25
2022-12-02T08:01:57.685Z,12.18
2022-12-02T08:04:25.548Z,11.30
2022-12-02T08:06:53.271Z,12.02
2022-12-02T08:09:21.131Z,13.27
2022-12-02T08:11:50.349Z,15.48
2022-12-02T08:14:18.180Z,15.70
2022-12-02T08:16:46.084Z,13.70
2022-12-02T08:19:14.231Z,13.30
2022-12-02T08:21:42.100Z,14.35
2022-12-02T08:24:10.068Z,12.50
2022-12-02T08:26:37.968Z,11.07
2022-12-02T08:29:07.112Z,10.80
2022-12-02T08:31:34.805Z,9.32
2022-12-02T08:34:07.032Z,9.65
2022-12-02T08:36:35.322Z,11.17
2022-12-02T08:39:05.600Z,11.35
2022-12-02T08:41:34.059Z,9.82
2022-12-02T08:44:01.899Z,10.52
2022-12-02T08:46:31.640Z,10.65
2022-12-02T08:49:00.105Z,10.95
2022-12-02T08:51:28.223Z,11.63
2022-12-02T08:53:56.134Z,11.95
2022-12-02T08:56:24.007Z,11.57
2022-12-02T08:58:51.898Z,11.63
2022-12-02T09:01:19.651Z,13.38
2022-12-02T09:03:48.843Z,15.60
2022-12-02T09:06:16.638Z,12.77
2022-12-02T09:08:44.410Z,11.90
2022-12-02T09:11:12.311Z,14.48
2022-12-02T09:13:40.164Z,16.15
2022-12-02T09:16:08.235Z,15.10
2022-12-02T09:18:36.040Z,15.30
2022-12-02T09:21:05.284Z,13.52
2022-12-02T09:23:33.068Z,14.63
2022-12-02T09:26:00.892Z,13.05
2022-12-02T09:28:28.793Z,14.88
2022-12-02T09:30:56.600Z,13.90
2022-12-02T09:33:27.995Z,11.73
2022-12-02T09:35:58.484Z,11.55
2022-12-02T09:38:31.183Z,11.45
2022-12-02T09:40:59.352Z,10.20
2022-12-02T09:43:27.931Z,10.35
2022-12-02T09:45:56.045Z,8.93
2022-12-02T09:48:24.192Z,9.77
2022-12-02T09:50:52.552Z,11.40
2022-12-02T09:53:21.233Z,12.52
2022-12-02T09:55:50.412Z,9.75
2022-12-02T09:58:20.336Z,10.57
2022-12-02T10:00:51.668Z,11.45
2022-12-02T10:03:23.818Z,9.60
2022-12-02T10:05:51.947Z,9.32
2022-12-02T10:08:23.356Z,10.40
2022-12-02T10:10:55.228Z,11.30
2022-12-02T10:13:24.589Z,13.02
2022-12-02T10:15:52.645Z,8.48
2022-12-02T10:18:23.351Z,10.15
2022-12-02T10:20:51.472Z,9.45
2022-12-02T10:23:20.657Z,10.82
2022-12-02T10:25:50.600Z,11.25
2022-12-02T10:28:29.141Z,13.00
2022-12-02T10:31:01.679Z,11.27
2022-12-02T10:33:31.237Z,10.57
2022-12-02T10:36:00.348Z,12.10
2022-12-02T10:38:31.222Z,10.57
2022-12-02T10:41:24.791Z,12.10
2022-12-02T10:44:07.635Z,11.35
2022-12-02T10:46:35.982Z,11.75
2022-12-02T10:49:19.580Z,12.38
2022-12-02T10:51:47.367Z,9.95
2022-12-02T10:54:24.659Z,11.27
2022-12-02T10:56:52.762Z,12.77
2022-12-02T10:59:22.971Z,12.93
2022-12-02T11:01:50.861Z,10.40
2022-12-02T11:04:18.908Z,11.57
2022-12-02T11:06:47.964Z,10.27
2022-12-02T11:09:39.589Z,10.52
2022-12-02T11:12:37.086Z,9.90
2022-12-02T11:15:36.181Z,10.40
2022-12-02T11:18:04.415Z,10.27
2022-12-02T11:20:37.889Z,10.23
2022-12-02T11:23:15.923Z,10.05
2022-12-02T11:26:09.522Z,10.98
2022-12-02T11:29:16.831Z,12.30
2022-12-02T11:32:02.243Z,12.30
2022-12-02T11:35:17.047Z,11.40
2022-12-02T11:37:45.718Z,12.50
2022-12-02T11:40:59.314Z,11.18
2022-12-02T11:44:10.105Z,12.50
2022-12-02T11:46:47.970Z,12.07
2022-12-02T11:49:29.884Z,12.75
2022-12-02T11:52:19.598Z,12.90
2022-12-02T11:54:52.505Z,11.90
2022-12-02T11:57:24.755Z,11.52
2022-12-02T11:59:52.765Z,10.70
2022-12-02T12:02:23.366Z,12.80
2022-12-02T12:05:01.377Z,11.25
2022-12-02T12:07:46.436Z,12.30
2022-12-02T12:10:29.334Z,9.85
2022-12-02T12:13:19.125Z,10.93
2022-12-02T12:15:55.422Z,9.82
2022-12-02T12:18:48.205Z,10.65
2022-12-02T12:21:38.280Z,11.40
2022-12-02T12:24:28.332Z,10.75
2022-12-02T12:26:57.338Z,11.90
2022-12-02T12:29:26.997Z,12.23
2022-12-02T12:31:55.198Z,11.30
2022-12-02T12:34:24.408Z,10.30
2022-12-02T12:36:52.324Z,10.45
2022-12-02T12:39:20.020Z,11.48
2022-12-02T12:42:03.127Z,13.27
2022-12-02T12:44:32.836Z,10.57
2022-12-02T12:47:02.647Z,11.95
2022-12-02T12:49:32.271Z,12.23
2022-12-02T12:52:00.350Z,12.00
2022-12-02T12:54:28.267Z,10.48
2022-12-02T12:56:55.977Z,10.07
2022-12-02T12:59:23.784Z,12.57
2022-12-02T13:01:51.850Z,10.50
2022-12-02T13:04:19.688Z,12.15
2022-12-02T13:06:48.820Z,11.25
2022-12-02T13:09:17.050Z,10.13
2022-12-02T13:11:44.863Z,12.55
2022-12-02T13:14:12.734Z,10.75
2022-12-02T13:16:40.612Z,10.15
2022-12-02T13:19:08.471Z,11.68
2022-12-02T13:21:36.281Z,10.93
2022-12-02T13:24:05.912Z,12.23
2022-12-02T13:26:33.691Z,10.48
2022-12-02T13:29:01.491Z,10.13
2022-12-02T13:31:29.357Z,9.68
2022-12-02T13:33:57.196Z,9.85
2022-12-02T13:36:26.207Z,12.82
2022-12-02T13:38:54.028Z,9.65
2022-12-02T13:41:23.212Z,11.85
2022-12-02T13:43:50.972Z,11.18
2022-12-02T13:46:18.743Z,10.88
2022-12-02T13:48:46.589Z,11.13
2022-12-02T13:51:14.266Z,9.55
2022-12-02T13:53:43.539Z,9.77
2022-12-02T13:56:11.432Z,8.25
2022-12-02T13:58:40.594Z,8.95
2022-12-02T14:01:08.631Z,11.38
2022-12-02T14:03:36.870Z,9.18
2022-12-02T14:06:04.976Z,9.60
2022-12-02T14:08:32.752Z,10.10
2022-12-02T14:11:00.441Z,10.18
2022-12-02T14:13:28.203Z,10.57
2022-12-02T14:15:57.315Z,11.55
2022-12-02T14:18:25.210Z,9.98
2022-12-02T14:20:52.963Z,10.88
2022-12-02T14:23:22.122Z,10.07
2022-12-02T14:25:49.925Z,10.93
2022-12-02T14:28:17.668Z,10.82
2022-12-02T14:30:45.582Z,10.07
2022-12-02T14:33:14.857Z,8.95
2022-12-02T14:35:43.310Z,9.98
2022-12-02T14:38:11.085Z,8.73
2022-12-02T14:40:38.853Z,9.60
2022-12-02T14:43:09.977Z,9.45
2022-12-02T14:45:41.976Z,9.82
2022-12-02T14:48:09.841Z,9.70
2022-12-02T14:50:39.214Z,9.63
2022-12-02T14:53:07.010Z,9.32
2022-12-02T14:55:34.759Z,9.60
2022-12-02T14:58:02.500Z,8.77
2022-12-02T15:00:30.289Z,10.15
2022-12-02T15:02:58.152Z,8.75
2022-12-02T15:05:25.892Z,10.52
2022-12-02T15:07:55.019Z,6.30
2022-12-02T15:10:22.853Z,7.93
2022-12-02T15:12:50.659Z,9.15
2022-12-02T15:18:06.426Z,9.13
2022-12-02T15:20:34.140Z,8.07
2022-12-02T15:23:03.250Z,9.18
2022-12-02T15:25:30.938Z,10.88
2022-12-02T15:27:58.658Z,10.02
2022-12-02T15:30:26.459Z,8.80
2022-12-02T15:32:54.177Z,10.30
2022-12-02T15:35:22.083Z,11.13
2022-12-02T15:37:49.991Z,10.70
2022-12-02T15:40:19.285Z,10.57
2022-12-02T15:42:46.964Z,11.63
2022-12-02T15:45:14.908Z,11.55
2022-12-02T15:47:42.697Z,11.18
2022-12-02T15:50:11.175Z,10.25
2022-12-02T15:52:38.933Z,11.98
2022-12-02T15:55:07.907Z,10.82
2022-12-02T15:57:37.013Z,11.05
2022-12-02T16:00:05.410Z,10.45
2022-12-02T16:02:33.271Z,12.10
2022-12-02T16:05:01.057Z,10.85
2022-12-02T16:07:28.879Z,10.95
2022-12-02T16:09:56.606Z,11.63
2022-12-02T16:12:24.291Z,10.93
2022-12-02T16:14:55.556Z,11.60
2022-12-02T16:17:23.606Z,10.77
2022-12-02T16:19:51.301Z,10.30
2022-12-02T16:22:19.052Z,10.48
2022-12-02T16:24:46.800Z,10.73
2022-12-02T16:27:14.581Z,10.65
2022-12-02T16:29:42.430Z,10.20
2022-12-02T16:32:15.407Z,10.57
2022-12-02T16:34:47.742Z,9.70
2022-12-02T16:37:17.269Z,10.15
2022-12-02T16:39:45.087Z,12.52
2022-12-02T16:42:12.784Z,10.85
2022-12-02T16:44:40.593Z,8.55
2022-12-02T16:47:08.533Z,11.93
2022-12-02T16:49:37.708Z,10.57
2022-12-02T16:52:05.701Z,11.88
2022-12-02T16:54:33.542Z,9.00
2022-12-02T16:57:01.296Z,10.00
2022-12-02T16:59:28.955Z,8.90
2022-12-02T17:01:56.831Z,10.43
2022-12-02T17:04:24.599Z,10.77
2022-12-02T17:06:53.717Z,8.73
2022-12-02T17:09:21.541Z,9.18
2022-12-02T17:11:49.333Z,9.05
2022-12-02T17:14:17.163Z,9.25
2022-12-02T17:16:44.896Z,9.52
2022-12-02T17:19:12.669Z,16.20
2022-12-02T17:21:40.448Z,42.47
2022-12-02T17:24:09.860Z,22.77
2022-12-02T17:26:37.605Z,21.02
2022-12-02T17:29:05.392Z,13.82
2022-12-02T17:31:33.152Z,12.07
2022-12-02T17:34:00.935Z,14.25
2022-12-02T17:36:28.663Z,11.75
2022-12-02T17:38:57.670Z,10.18
2022-12-02T17:41:26.964Z,11.90
2022-12-02T17:43:55.084Z,10.05
2022-12-02T17:46:22.891Z,13.07
2022-12-02T17:48:50.892Z,13.45
2022-12-02T17:51:19.039Z,11.18
2022-12-02T17:53:46.840Z,11.00
2022-12-02T17:56:14.535Z,12.23
2022-12-02T17:58:43.682Z,11.50
2022-12-02T18:01:12.552Z,11.23
2022-12-02T18:03:40.763Z,12.00
2022-12-02T18:06:09.236Z,11.68
2022-12-02T18:08:37.124Z,11.32
2022-12-02T18:11:05.018Z,9.70
2022-12-02T18:13:33.170Z,9.32
2022-12-02T18:16:02.336Z,9.38
2022-12-02T18:18:30.057Z,10.00
2022-12-02T18:20:57.875Z,10.10
2022-12-02T18:23:27.910Z,14.82
2022-12-02T18:25:55.845Z,10.32
2022-12-02T18:28:23.539Z,12.38
2022-12-02T18:30:51.450Z,11.85
2022-12-02T18:33:20.714Z,12.32
2022-12-02T18:35:48.531Z,11.10
2022-12-02T18:38:16.240Z,9.30
2022-12-02T18:40:43.947Z,10.68
2022-12-02T18:43:11.768Z,9.85
2022-12-02T18:45:39.476Z,9.68
2022-12-02T18:48:07.774Z,9.45
2022-12-02T18:50:36.959Z,12.48
2022-12-02T18:53:04.756Z,11.85
2022-12-02T18:55:32.557Z,11.15
2022-12-02T18:58:00.254Z,12.20
2022-12-02T19:00:30.151Z,10.65
2022-12-02T19:02:57.943Z,12.13
2022-12-02T19:05:25.804Z,12.20
2022-12-02T19:07:54.974Z,10.98
2022-12-02T19:10:23.524Z,11.45
2022-12-02T19:12:51.383Z,12.32
2022-12-02T19:15:19.268Z,10.02
2022-12-02T19:17:47.037Z,11.85
2022-12-02T19:20:15.032Z,13.00
2022-12-02T19:22:42.766Z,11.68
2022-12-02T19:25:12.547Z,11.90
2022-12-02T19:30:28.224Z,11.43
2022-12-02T19:32:56.131Z,12.57
2022-12-02T19:35:23.893Z,12.07
2022-12-02T19:37:51.656Z,13.05
2022-12-02T19:40:20.957Z,10.50
2022-12-02T19:42:48.769Z,12.93
2022-12-02T19:45:16.882Z,13.07
2022-12-02T19:47:44.644Z,12.75
2022-12-02T19:50:14.208Z,12.63
2022-12-02T19:52:42.105Z,13.63
2022-12-02T19:55:10.272Z,12.52
2022-12-02T19:57:39.693Z,11.93
2022-12-02T20:00:09.178Z,11.15
2022-12-02T20:02:38.340Z,12.82
2022-12-02T20:05:07.172Z,10.48
2022-12-02T20:07:35.151Z,9.68
2022-12-02T20:10:03.048Z,11.45
2022-12-02T20:12:30.778Z,11.65
2022-12-02T20:15:00.081Z,10.93
2022-12-02T20:17:27.823Z,8.52
2022-12-02T20:19:55.696Z,11.57
2022-12-02T20:22:23.493Z,9.52
2022-12-02T20:24:52.517Z,10.35
2022-12-02T20:27:20.485Z,8.82
2022-12-02T20:29:48.274Z,9.32
2022-12-02T20:32:18.745Z,11.30
2022-12-02T20:34:46.466Z,9.32
2022-12-02T20:37:14.185Z,9.02
2022-12-02T20:39:42.832Z,12.15
2022-12-02T20:42:11.107Z,10.45
2022-12-02T20:44:38.882Z,9.50
2022-12-02T20:47:07.211Z,9.00
2022-12-02T20:49:36.356Z,9.15
2022-12-02T20:52:04.220Z,9.45
2022-12-02T20:54:31.955Z,11.93
2022-12-02T20:56:59.700Z,8.73
2022-12-02T20:59:27.380Z,9.07
2022-12-02T21:01:55.243Z,9.18
2022-12-02T21:04:23.004Z,10.90
2022-12-02T21:06:52.075Z,10.55
2022-12-02T21:09:19.972Z,11.02
2022-12-02T21:11:47.936Z,10.82
2022-12-02T21:14:15.930Z,12.25
2022-12-02T21:16:43.803Z,12.55
2022-12-02T21:19:11.973Z,12.23
2022-12-02T21:21:40.161Z,11.43
2022-12-02T21:24:09.432Z,10.82
2022-12-02T21:26:37.241Z,12.95
2022-12-02T21:29:05.013Z,11.30
2022-12-02T21:31:32.835Z,10.38
2022-12-02T21:34:00.600Z,11.60
2022-12-02T21:36:28.341Z,11.68
2022-12-02T21:38:56.134Z,10.43
2022-12-02T21:41:25.465Z,9.88
2022-12-02T21:43:53.278Z,12.10
2022-12-02T21:46:21.197Z,10.55
2022-12-02T21:48:49.015Z,11.73
2022-12-02T21:51:17.078Z,10.32
2022-12-02T21:53:44.836Z,10.30
2022-12-02T21:56:12.659Z,12.00
2022-12-02T21:58:41.831Z,9.82
2022-12-02T22:01:27.094Z,11.35
2022-12-02T22:03:54.974Z,11.52
2022-12-02T22:06:22.672Z,10.32
2022-12-02T22:08:50.385Z,11.35
2022-12-02T22:11:18.248Z,11.85
2022-12-02T22:13:47.416Z,9.20
2022-12-02T22:16:15.426Z,12.40
2022-12-02T22:18:43.501Z,13.40
2022-12-02T22:21:11.324Z,10.48
2022-12-02T22:23:39.072Z,11.95
2022-12-02T22:26:06.940Z,11.40
2022-12-02T22:28:34.748Z,12.55
2022-12-02T22:31:03.864Z,10.35
2022-12-02T22:33:33.552Z,11.88
2022-12-02T22:36:01.779Z,10.13
2022-12-02T22:38:29.695Z,11.25
2022-12-02T22:40:57.431Z,11.15
2022-12-02T22:43:25.209Z,11.73
2022-12-02T22:45:53.153Z,12.40
2022-12-02T22:48:22.359Z,10.95
2022-12-02T22:50:50.080Z,11.07
2022-12-02T22:53:17.835Z,11.05
2022-12-02T22:55:45.606Z,12.70
2022-12-02T22:58:13.415Z,8.85
2022-12-02T23:00:41.150Z,11.48
2022-12-02T23:03:08.926Z,10.88
2022-12-02T23:05:38.071Z,11.80
2022-12-02T23:08:06.276Z,10.98
2022-12-02T23:10:35.885Z,11.00
2022-12-02T23:13:04.219Z,10.73
2022-12-02T23:15:37.640Z,11.73
2022-12-02T23:18:06.557Z,10.38
2022-12-02T23:20:34.304Z,9.95
2022-12-02T23:23:03.398Z,10.88
2022-12-02T23:25:31.156Z,11.23
2022-12-02T23:27:59.088Z,10.75
2022-12-02T23:30:29.341Z,9.75
2022-12-02T23:32:57.660Z,9.32
2022-12-02T23:35:25.458Z,9.15
2022-12-02T23:37:53.136Z,9.73
2022-12-02T23:40:22.509Z,9.90
2022-12-02T23:42:50.244Z,8.20
2022-12-02T23:45:18.141Z,10.23
2022-12-02T23:47:46.023Z,9.02
2022-12-02T23:50:13.811Z,10.57
2022-12-02T23:52:41.491Z,10.52
2022-12-02T23:55:10.885Z,11.80
2022-12-02T23:57:39.920Z,9.43
